Time;durP1;ratioP1;P1;durP2;ratioP2;P2;SDS_P1;SDS_P2;PMS_P1;PMS_P2;Temp;Humidity;BMP_temperature;BMP_pressure;BME280_temperature;BME280_humidity;BME280_pressure;Samples;Min_cycle;Max_cycle;Signal;HPM_P1;HPM_P2
2021/01/20 00:00:14;;;;;;;123.25;98.30;;;6.60;99.90;;;;;;5017288;28;20022;-74
2021/01/20 00:02:40;;;;;;;117.40;95.13;;;6.70;99.90;;;;;;5015105;28;20492;-74
2021/01/20 00:05:08;;;;;;;118.35;97.55;;;6.90;99.90;;;;;;5014028;28;20030;-73
2021/01/20 00:07:34;;;;;;;125.85;99.45;;;6.90;99.90;;;;;;5014232;28;20050;-74
2021/01/20 00:10:00;;;;;;;124.80;103.05;;;6.80;99.90;;;;;;5008264;28;20022;-73
2021/01/20 00:12:26;;;;;;;116.53;94.25;;;6.70;99.90;;;;;;5010017;28;20025;-74
2021/01/20 00:17:56;;;;;;;113.65;92.55;;;6.80;99.90;;;;;;5014933;28;20171;-74
2021/01/20 00:20:22;;;;;;;109.72;88.57;;;6.80;99.90;;;;;;5011174;28;20078;-74
2021/01/20 00:22:49;;;;;;;121.90;95.05;;;6.80;99.90;;;;;;5012391;28;20112;-73
2021/01/20 00:25:21;;;;;;;114.75;93.38;;;6.80;99.90;;;;;;5012371;28;20029;-73
2021/01/20 00:27:47;;;;;;;113.22;94.90;;;6.90;99.90;;;;;;5015205;28;20029;-73
2021/01/20 00:30:13;;;;;;;116.85;97.82;;;6.90;99.90;;;;;;5010294;28;20026;-74
2021/01/20 00:32:39;;;;;;;122.63;95.00;;;6.80;99.90;;;;;;5012057;28;20029;-74
2021/01/20 00:35:10;;;;;;;115.38;95.55;;;6.90;99.90;;;;;;5014748;28;20046;-74
2021/01/20 00:37:37;;;;;;;117.95;96.88;;;6.90;99.90;;;;;;5011470;28;20034;-73
2021/01/20 00:40:05;;;;;;;117.60;96.20;;;6.90;99.90;;;;;;5013444;28;20481;-73
2021/01/20 00:42:31;;;;;;;117.78;96.38;;;6.80;99.90;;;;;;5013552;28;20093;-74
2021/01/20 00:44:57;;;;;;;119.38;95.55;;;6.80;99.90;;;;;;5014885;28;20057;-73
2021/01/20 00:47:24;;;;;;;120.22;97.70;;;6.80;99.90;;;;;;5010211;28;20034;-74
2021/01/20 00:49:50;;;;;;;123.55;98.63;;;6.80;99.90;;;;;;5015181;28;20030;-74
2021/01/20 00:52:16;;;;;;;120.88;97.00;;;6.80;99.90;;;;;;5008994;28;20033;-73
2021/01/20 00:54:42;;;;;;;124.95;99.97;;;6.70;99.90;;;;;;5013606;28;20085;-73
2021/01/20 00:57:07;;;;;;;123.40;98.88;;;6.70;99.90;;;;;;5008387;28;20104;-74
2021/01/20 00:59:33;;;;;;;119.78;98.95;;;6.80;99.90;;;;;;5010280;28;20124;-73
2021/01/20 01:01:59;;;;;;;130.63;101.60;;;6.80;99.90;;;;;;5011469;28;20030;-73
2021/01/20 01:04:26;;;;;;;119.55;98.80;;;6.70;99.90;;;;;;5012401;28;20056;-73
2021/01/20 01:06:53;;;;;;;117.70;95.80;;;6.70;99.90;;;;;;5009098;28;20029;-74
2021/01/20 01:09:20;;;;;;;123.18;101.00;;;6.70;99.90;;;;;;5013067;28;20018;-73
2021/01/20 01:11:45;;;;;;;131.02;102.70;;;6.70;99.90;;;;;;5010399;28;20026;-73
2021/01/20 01:14:12;;;;;;;116.63;97.85;;;6.60;99.90;;;;;;5011377;28;20010;-73
2021/01/20 01:16:39;;;;;;;134.75;103.93;;;6.50;99.90;;;;;;5008759;28;20036;-73
2021/01/20 01:19:05;;;;;;;127.03;99.75;;;6.60;99.90;;;;;;5010844;28;20084;-73
2021/01/20 01:21:31;;;;;;;130.27;102.07;;;6.50;99.90;;;;;;5010951;28;20030;-74
2021/01/20 01:23:57;;;;;;;134.02;104.65;;;6.50;99.90;;;;;;5012546;28;20030;-73
2021/01/20 01:26:23;;;;;;;127.22;98.05;;;6.40;99.90;;;;;;5012586;28;20065;-73
2021/01/20 01:28:49;;;;;;;134.68;101.53;;;6.50;99.90;;;;;;5009482;28;20030;-73
2021/01/20 01:31:15;;;;;;;127.75;101.53;;;6.30;99.90;;;;;;5011440;28;20065;-74
2021/01/20 01:33:41;;;;;;;132.45;102.80;;;6.20;99.90;;;;;;5010646;28;20033;-74
2021/01/20 01:36:07;;;;;;;130.73;103.90;;;6.30;99.90;;;;;;5009193;28;20033;-74
2021/01/20 01:38:33;;;;;;;127.60;101.93;;;6.20;99.90;;;;;;5012257;28;20030;-73
2021/01/20 01:40:59;;;;;;;132.02;106.88;;;6.30;99.90;;;;;;5013424;28;20033;-74
2021/01/20 01:43:25;;;;;;;135.70;105.88;;;6.40;99.90;;;;;;5015252;28;20033;-73
2021/01/20 01:45:51;;;;;;;128.20;105.50;;;6.40;99.90;;;;;;5014797;28;20109;-75
2021/01/20 01:48:17;;;;;;;136.98;107.00;;;6.40;99.90;;;;;;5014693;28;20120;-73
2021/01/20 01:50:43;;;;;;;135.00;108.57;;;6.40;99.90;;;;;;5017003;28;20029;-74
2021/01/20 01:53:09;;;;;;;132.70;104.22;;;6.40;99.90;;;;;;5009628;28;20060;-73
2021/01/20 01:55:36;;;;;;;133.73;106.43;;;6.50;99.90;;;;;;5013717;28;20037;-73
2021/01/20 01:58:03;;;;;;;132.95;107.10;;;6.40;99.90;;;;;;5012478;28;21322;-73
2021/01/20 02:00:29;;;;;;;136.48;105.78;;;6.30;99.90;;;;;;5012544;28;20026;-73
2021/01/20 02:02:55;;;;;;;124.95;103.68;;;6.40;99.90;;;;;;5013678;28;20064;-73
2021/01/20 02:05:21;;;;;;;126.65;102.85;;;6.30;99.90;;;;;;5013787;28;20113;-73
2021/01/20 02:07:48;;;;;;;127.05;104.07;;;6.40;99.90;;;;;;5016795;28;20030;-73
2021/01/20 02:10:17;;;;;;;127.43;106.85;;;6.40;99.90;;;;;;5015101;28;20045;-73
2021/01/20 02:12:52;;;;;;;129.32;103.47;;;6.50;99.90;;;;;;5014437;28;20032;-74
2021/01/20 02:16:06;;;;;;;132.95;104.80;;;6.50;99.90;;;;;;5012633;28;20050;-73
2021/01/20 02:18:35;;;;;;;132.05;103.35;;;6.50;99.90;;;;;;5003142;28;20457;-73
2021/01/20 02:21:19;;;;;;;129.73;104.82;;;6.40;99.90;;;;;;5015597;28;20097;-73
2021/01/20 02:23:46;;;;;;;133.75;106.22;;;6.40;99.90;;;;;;5015992;28;20044;-75
2021/01/20 02:26:23;;;;;;;126.35;99.60;;;6.30;99.90;;;;;;5012509;28;20018;-73
2021/01/20 02:28:52;;;;;;;131.23;102.07;;;6.20;99.90;;;;;;5013885;28;20482;-74
2021/01/20 02:31:22;;;;;;;126.60;105.25;;;6.20;99.90;;;;;;5016070;28;20037;-73
2021/01/20 02:33:52;;;;;;;134.45;103.80;;;6.20;99.90;;;;;;5016299;28;20054;-73
2021/01/20 02:36:20;;;;;;;127.38;105.43;;;6.30;99.90;;;;;;5014423;28;20100;-73
2021/01/20 02:38:48;;;;;;;127.88;103.13;;;6.20;99.90;;;;;;5015419;28;20433;-74
2021/01/20 02:41:29;;;;;;;129.50;103.47;;;6.20;99.90;;;;;;5010220;28;20478;-73
2021/01/20 02:44:03;;;;;;;125.25;99.50;;;6.20;99.90;;;;;;5015676;28;20044;-73
2021/01/20 02:46:30;;;;;;;123.45;98.57;;;6.20;99.90;;;;;;5006353;28;20034;-73
2021/01/20 02:48:58;;;;;;;125.88;102.05;;;6.20;99.90;;;;;;5012972;28;20030;-73
2021/01/20 02:51:58;;;;;;;125.93;101.18;;;6.20;99.90;;;;;;5013103;28;20026;-73
2021/01/20 02:54:26;;;;;;;127.95;98.28;;;6.20;99.90;;;;;;4985034;28;20383;-74
2021/01/20 02:56:57;;;;;;;128.43;101.53;;;6.20;99.90;;;;;;5013582;28;20508;-73
2021/01/20 02:59:26;;;;;;;122.80;96.95;;;6.10;99.90;;;;;;5015085;28;20029;-73
2021/01/20 03:01:56;;;;;;;121.18;99.13;;;6.20;99.90;;;;;;5014307;28;20022;-73
2021/01/20 03:04:23;;;;;;;127.38;99.57;;;6.30;99.90;;;;;;5011922;28;20030;-74
2021/01/20 03:06:52;;;;;;;126.63;100.97;;;6.30;99.90;;;;;;5014028;28;20065;-74
2021/01/20 03:09:19;;;;;;;127.47;101.82;;;6.20;99.90;;;;;;5017315;28;20029;-73
2021/01/20 03:11:49;;;;;;;118.07;97.65;;;6.20;99.90;;;;;;5020211;28;20022;-73
2021/01/20 03:14:19;;;;;;;117.30;94.55;;;6.20;99.90;;;;;;5015050;28;20017;-74
2021/01/20 03:16:45;;;;;;;124.60;98.97;;;6.30;99.90;;;;;;5013288;28;20030;-74
2021/01/20 03:19:11;;;;;;;119.43;98.03;;;6.40;99.90;;;;;;5014445;28;20036;-73
2021/01/20 03:21:36;;;;;;;116.47;98.97;;;6.40;99.90;;;;;;5014087;28;20490;-73
2021/01/20 03:24:03;;;;;;;119.95;94.22;;;6.30;99.90;;;;;;5014126;28;20036;-74
2021/01/20 03:26:29;;;;;;;120.65;97.70;;;6.40;99.90;;;;;;5009856;28;20057;-73
2021/01/20 03:28:55;;;;;;;128.93;102.30;;;6.50;99.90;;;;;;5014761;28;20029;-73
2021/01/20 03:31:20;;;;;;;123.22;98.07;;;6.50;99.90;;;;;;5014266;28;20447;-74
2021/01/20 03:33:46;;;;;;;125.80;99.68;;;6.40;99.90;;;;;;5012963;28;20080;-73
2021/01/20 03:36:12;;;;;;;120.60;100.80;;;6.30;99.90;;;;;;5011386;28;20034;-73
2021/01/20 03:38:38;;;;;;;124.47;101.78;;;6.30;99.90;;;;;;5014334;28;20030;-73
2021/01/20 03:41:04;;;;;;;122.47;99.88;;;6.40;99.90;;;;;;5013638;28;20105;-73
2021/01/20 03:43:30;;;;;;;116.25;94.97;;;6.30;99.90;;;;;;5013801;28;20055;-74
2021/01/20 03:45:56;;;;;;;118.20;96.93;;;6.30;99.90;;;;;;5008862;28;20038;-73
2021/01/20 03:48:22;;;;;;;123.93;98.20;;;6.20;99.90;;;;;;5012794;28;20026;-74
2021/01/20 03:50:48;;;;;;;117.68;96.47;;;6.20;99.90;;;;;;5014640;28;20289;-74
2021/01/20 03:53:21;;;;;;;119.65;95.93;;;6.20;99.90;;;;;;5011080;28;20029;-74
2021/01/20 03:55:47;;;;;;;116.15;93.07;;;6.30;99.90;;;;;;5013349;28;20049;-73
2021/01/20 03:58:16;;;;;;;118.80;95.38;;;6.30;99.90;;;;;;5010174;28;20057;-73
2021/01/20 04:00:45;;;;;;;119.63;94.60;;;6.10;99.90;;;;;;5012967;28;20059;-73
2021/01/20 04:03:11;;;;;;;121.85;94.57;;;6.00;99.90;;;;;;5008305;28;20026;-75
2021/01/20 04:05:37;;;;;;;133.75;96.13;;;5.90;99.90;;;;;;5013625;28;20030;-73
2021/01/20 04:08:03;;;;;;;133.15;99.05;;;5.90;99.90;;;;;;5008637;28;20497;-73
2021/01/20 04:10:29;;;;;;;120.15;96.13;;;6.00;99.90;;;;;;5009750;28;20515;-74
2021/01/20 04:12:55;;;;;;;124.07;96.82;;;6.00;99.90;;;;;;5014268;28;20030;-74
2021/01/20 04:15:21;;;;;;;112.43;93.60;;;6.10;99.90;;;;;;5012513;28;20060;-73
2021/01/20 04:17:47;;;;;;;121.70;97.00;;;6.20;99.90;;;;;;5012315;28;20525;-73
2021/01/20 04:20:13;;;;;;;119.35;92.40;;;6.20;99.90;;;;;;5013866;28;20041;-74
2021/01/20 04:22:39;;;;;;;110.13;89.30;;;6.30;99.90;;;;;;5013476;28;20030;-73
2021/01/20 04:25:06;;;;;;;112.70;88.63;;;6.20;99.90;;;;;;5012728;28;20672;-75
2021/01/20 04:27:32;;;;;;;112.25;90.25;;;6.20;99.90;;;;;;5010480;28;20481;-73
2021/01/20 04:29:58;;;;;;;114.88;92.38;;;6.20;99.90;;;;;;5012010;28;20037;-73
2021/01/20 04:32:24;;;;;;;111.05;89.93;;;6.20;99.90;;;;;;5012875;28;20060;-73
2021/01/20 04:34:49;;;;;;;112.18;89.97;;;6.20;99.90;;;;;;5013151;28;20486;-73
2021/01/20 04:37:16;;;;;;;119.68;93.47;;;6.30;99.90;;;;;;5012268;28;20026;-74
2021/01/20 04:39:42;;;;;;;109.32;90.38;;;6.30;99.90;;;;;;5013323;28;20401;-73
2021/01/20 04:42:13;;;;;;;115.05;89.07;;;6.50;99.90;;;;;;5002054;28;20052;-73
2021/01/20 04:44:39;;;;;;;120.35;92.38;;;6.50;99.90;;;;;;5006444;28;20026;-74
2021/01/20 04:47:06;;;;;;;111.55;92.53;;;6.50;99.90;;;;;;5011002;28;20508;-74
2021/01/20 04:49:35;;;;;;;115.47;92.97;;;6.50;99.90;;;;;;5012843;28;20026;-75
2021/01/20 04:52:03;;;;;;;116.40;90.72;;;6.50;99.90;;;;;;5009240;28;20034;-73
2021/01/20 04:54:32;;;;;;;111.75;89.70;;;6.60;99.90;;;;;;5009861;28;20022;-73
2021/01/20 04:56:58;;;;;;;115.82;91.60;;;6.70;99.90;;;;;;5007744;28;20057;-73
2021/01/20 04:59:30;;;;;;;114.03;94.63;;;6.60;99.90;;;;;;5012506;28;20056;-74
2021/01/20 05:01:57;;;;;;;113.93;92.40;;;6.60;99.90;;;;;;5007110;28;20057;-73
2021/01/20 05:04:23;;;;;;;112.20;92.03;;;6.60;99.90;;;;;;5013127;28;20061;-74
2021/01/20 05:06:49;;;;;;;111.70;93.10;;;6.60;99.90;;;;;;5008463;28;20486;-74
2021/01/20 05:09:15;;;;;;;118.68;92.82;;;6.60;99.90;;;;;;5012600;28;20022;-74
2021/01/20 05:11:43;;;;;;;116.63;92.32;;;6.60;99.90;;;;;;5010256;28;20029;-74
2021/01/20 05:14:19;;;;;;;111.97;91.13;;;6.60;99.90;;;;;;5011166;28;20018;-74
2021/01/20 05:17:41;;;;;;;108.45;86.57;;;6.60;99.90;;;;;;5012400;28;20038;-73
2021/01/20 05:20:40;;;;;;;106.82;86.93;;;6.60;99.90;;;;;;5009626;28;20508;-73
2021/01/20 05:23:08;;;;;;;109.72;88.90;;;6.50;99.90;;;;;;5011635;28;20033;-74
2021/01/20 05:25:41;;;;;;;116.93;94.13;;;6.50;99.90;;;;;;5009722;28;20041;-73
2021/01/20 05:28:34;;;;;;;105.45;88.85;;;6.50;99.90;;;;;;5012993;28;20022;-74
2021/01/20 05:31:02;;;;;;;106.50;87.60;;;6.50;99.90;;;;;;5011777;28;20022;-74
2021/01/20 05:33:34;;;;;;;114.82;88.50;;;6.50;99.90;;;;;;5012403;28;20054;-74
2021/01/20 05:36:04;;;;;;;111.57;87.90;;;6.40;99.90;;;;;;5008316;28;20053;-74
2021/01/20 05:39:06;;;;;;;113.90;91.30;;;6.40;99.90;;;;;;5012718;28;20030;-76
2021/01/20 05:41:32;;;;;;;115.78;96.78;;;6.40;99.90;;;;;;5021639;28;20037;-74
2021/01/20 05:44:07;;;;;;;115.43;93.45;;;6.40;99.90;;;;;;5011367;28;20163;-74
2021/01/20 05:46:38;;;;;;;114.18;90.28;;;6.40;99.90;;;;;;5012244;28;20033;-75
2021/01/20 05:49:06;;;;;;;112.07;91.63;;;6.40;99.90;;;;;;5011949;28;20050;-74
2021/01/20 05:51:44;;;;;;;112.97;89.57;;;6.40;99.90;;;;;;5009378;28;20124;-77
2021/01/20 05:54:10;;;;;;;112.63;92.97;;;6.50;99.90;;;;;;5006719;28;20025;-73
2021/01/20 05:56:37;;;;;;;107.40;89.63;;;6.50;99.90;;;;;;5011455;28;20485;-74
2021/01/20 05:59:10;;;;;;;107.90;91.25;;;6.50;99.90;;;;;;5011381;28;20121;-73
2021/01/20 06:01:37;;;;;;;114.20;93.18;;;6.50;99.90;;;;;;5009278;28;20064;-74
2021/01/20 06:04:07;;;;;;;117.75;92.63;;;6.50;99.90;;;;;;5012277;28;20050;-74
2021/01/20 06:06:35;;;;;;;123.22;97.03;;;6.60;99.90;;;;;;5008084;28;20022;-74
2021/01/20 06:09:01;;;;;;;116.38;93.72;;;6.50;99.90;;;;;;5007910;28;20032;-73
2021/01/20 06:11:27;;;;;;;121.90;94.20;;;6.50;99.90;;;;;;5009401;28;20030;-74
2021/01/20 06:13:53;;;;;;;121.53;94.82;;;6.40;99.90;;;;;;5011336;28;20081;-74
2021/01/20 06:16:41;;;;;;;112.32;92.07;;;6.40;99.90;;;;;;5010022;28;20030;-73
2021/01/20 06:19:15;;;;;;;116.05;89.95;;;6.50;99.90;;;;;;5008139;28;20053;-73
2021/01/20 06:21:42;;;;;;;113.90;88.20;;;6.50;99.90;;;;;;5007215;28;20041;-73
2021/01/20 06:24:11;;;;;;;109.90;88.55;;;6.50;99.90;;;;;;5005516;28;20053;-74
2021/01/20 06:26:50;;;;;;;100.72;81.65;;;6.60;99.90;;;;;;5010535;28;20065;-74
2021/01/20 06:29:20;;;;;;;105.47;82.00;;;6.70;99.90;;;;;;5011015;28;20168;-74
2021/01/20 06:31:49;;;;;;;106.70;83.63;;;6.70;99.90;;;;;;5013695;28;20029;-74
2021/01/20 06:34:15;;;;;;;107.80;85.28;;;6.70;99.90;;;;;;5012071;28;20018;-73
2021/01/20 06:36:44;;;;;;;102.45;79.78;;;6.50;99.90;;;;;;5015119;28;20041;-73
2021/01/20 06:39:28;;;;;;;104.40;80.07;;;6.50;99.90;;;;;;5010363;28;20037;-74
2021/01/20 06:41:56;;;;;;;96.70;80.32;;;6.50;99.90;;;;;;5008687;28;20048;-73
2021/01/20 06:44:23;;;;;;;110.07;81.80;;;6.50;99.90;;;;;;5015381;28;20030;-78
2021/01/20 06:46:57;;;;;;;95.15;80.55;;;6.50;99.90;;;;;;5013064;28;20034;-78
2021/01/20 06:49:30;;;;;;;102.78;84.18;;;6.60;99.90;;;;;;5016657;28;20029;-78
2021/01/20 06:52:09;;;;;;;101.90;81.05;;;6.60;99.90;;;;;;5015387;28;20108;-78
2021/01/20 06:54:41;;;;;;;101.95;79.85;;;6.60;99.90;;;;;;5017117;28;20437;-77
2021/01/20 06:57:32;;;;;;;109.65;83.43;;;6.60;99.90;;;;;;5020702;28;20087;-77
2021/01/20 07:00:08;;;;;;;99.77;81.40;;;6.60;99.90;;;;;;5020718;28;20041;-77
2021/01/20 07:03:00;;;;;;;101.57;82.68;;;6.60;99.90;;;;;;5021997;28;20425;-77
2021/01/20 07:05:35;;;;;;;103.60;82.13;;;6.60;99.90;;;;;;5016306;28;20045;-78
2021/01/20 07:08:01;;;;;;;101.45;81.97;;;6.70;99.90;;;;;;5028065;28;20080;-77
2021/01/20 07:11:09;;;;;;;100.43;80.40;;;6.70;99.90;;;;;;5030719;28;20014;-77
2021/01/20 07:13:39;;;;;;;102.63;84.35;;;6.70;99.90;;;;;;4921868;29;20095;-78
2021/01/20 07:16:07;;;;;;;100.13;78.68;;;6.80;99.90;;;;;;4933673;29;20082;-78
2021/01/20 07:18:40;;;;;;;101.68;79.50;;;6.80;99.90;;;;;;4971489;28;20030;-77
2021/01/20 07:21:10;;;;;;;92.85;77.78;;;7.00;99.90;;;;;;5013278;28;20036;-78
2021/01/20 07:23:42;;;;;;;91.93;77.65;;;6.90;99.90;;;;;;5016086;28;20529;-77
2021/01/20 07:26:30;;;;;;;98.20;81.80;;;7.00;99.90;;;;;;5004093;28;20132;-77
2021/01/20 07:28:56;;;;;;;93.63;79.32;;;7.10;99.90;;;;;;5024235;28;20050;-78
2021/01/20 07:31:22;;;;;;;92.50;80.07;;;7.10;99.90;;;;;;5023054;28;20109;-77
2021/01/20 07:34:00;;;;;;;97.07;81.13;;;7.20;99.90;;;;;;5028518;28;20026;-79
2021/01/20 07:36:27;;;;;;;99.68;78.85;;;7.20;99.90;;;;;;5025566;28;20026;-77
2021/01/20 07:38:53;;;;;;;95.65;79.45;;;7.30;99.90;;;;;;5024557;28;20072;-77
2021/01/20 07:41:26;;;;;;;96.88;79.55;;;7.40;99.90;;;;;;5023672;28;20030;-77
2021/01/20 07:44:05;;;;;;;96.85;74.03;;;7.30;99.90;;;;;;5021172;28;20121;-77
2021/01/20 07:46:31;;;;;;;91.35;73.65;;;7.40;99.90;;;;;;5015403;28;20045;-77
2021/01/20 07:49:10;;;;;;;89.85;75.22;;;7.60;99.90;;;;;;5013778;28;20041;-78
2021/01/20 07:51:42;;;;;;;92.10;75.90;;;7.80;99.90;;;;;;5014691;28;21405;-78
2021/01/20 07:54:12;;;;;;;90.22;74.55;;;7.80;99.90;;;;;;5010058;28;20242;-78
2021/01/20 07:56:38;;;;;;;91.00;77.60;;;7.80;99.90;;;;;;5009858;28;20030;-78
2021/01/20 07:59:18;;;;;;;109.20;80.30;;;7.90;99.90;;;;;;5013476;28;20048;-78
2021/01/20 08:01:45;;;;;;;100.80;81.20;;;7.80;99.90;;;;;;5012184;28;20026;-77
2021/01/20 08:04:18;;;;;;;99.45;77.47;;;7.90;99.90;;;;;;5015911;28;20025;-78
2021/01/20 08:06:44;;;;;;;107.40;79.68;;;8.00;99.90;;;;;;5013916;28;20033;-78
2021/01/20 08:09:10;;;;;;;101.75;79.07;;;7.90;99.90;;;;;;5015375;28;20398;-77
2021/01/20 08:11:37;;;;;;;95.93;78.60;;;8.00;99.90;;;;;;5010116;28;20731;-78
2021/01/20 08:14:04;;;;;;;107.70;80.78;;;8.00;99.90;;;;;;5016735;28;20033;-78
2021/01/20 08:16:34;;;;;;;101.05;80.68;;;7.80;99.90;;;;;;5021179;28;20030;-78
2021/01/20 08:19:02;;;;;;;105.63;83.55;;;7.80;99.90;;;;;;5017962;28;20018;-77
2021/01/20 08:21:28;;;;;;;99.40;82.00;;;7.80;99.90;;;;;;5013395;28;20022;-77
2021/01/20 08:24:01;;;;;;;94.80;77.68;;;7.90;99.90;;;;;;5015733;28;20367;-77
2021/01/20 08:26:29;;;;;;;96.05;79.85;;;7.90;99.90;;;;;;5009208;28;20018;-78
2021/01/20 08:29:06;;;;;;;96.05;81.85;;;8.00;99.90;;;;;;5015226;28;20022;-77
2021/01/20 08:31:33;;;;;;;94.03;78.88;;;8.00;99.90;;;;;;5011560;28;20080;-77
2021/01/20 08:34:17;;;;;;;102.53;82.88;;;8.30;99.90;;;;;;5012776;28;20112;-78
2021/01/20 08:36:57;;;;;;;90.15;78.15;;;8.30;99.90;;;;;;5011996;28;20661;-77
2021/01/20 08:39:24;;;;;;;102.28;81.18;;;8.30;99.90;;;;;;5013942;28;20038;-77
2021/01/20 08:42:15;;;;;;;92.97;81.88;;;8.20;99.90;;;;;;5013637;28;20037;-78
2021/01/20 08:45:17;;;;;;;100.43;85.37;;;8.30;99.90;;;;;;5012585;28;20092;-77
2021/01/20 08:47:50;;;;;;;111.03;88.18;;;8.20;99.90;;;;;;5011179;28;20482;-77
2021/01/20 08:50:21;;;;;;;106.68;86.93;;;8.00;99.90;;;;;;5010108;28;20038;-78
2021/01/20 08:52:51;;;;;;;108.40;86.30;;;8.00;99.90;;;;;;5012919;28;20686;-77
2021/01/20 08:55:31;;;;;;;104.70;87.35;;;7.80;99.90;;;;;;5014283;28;20033;-78
2021/01/20 08:58:27;;;;;;;106.85;87.13;;;7.80;99.90;;;;;;5006078;28;20026;-78
2021/01/20 09:01:02;;;;;;;111.78;87.95;;;7.80;99.90;;;;;;5009391;28;20050;-77
2021/01/20 09:03:32;;;;;;;97.63;84.55;;;7.70;99.90;;;;;;5010376;28;20089;-77
2021/01/20 09:06:03;;;;;;;101.93;83.00;;;7.80;99.90;;;;;;5009558;28;20032;-78
2021/01/20 09:08:30;;;;;;;104.72;85.25;;;7.80;99.90;;;;;;5014368;28;20098;-77
2021/01/20 09:10:58;;;;;;;108.22;84.53;;;7.80;99.90;;;;;;5011965;28;20026;-78
2021/01/20 09:13:24;;;;;;;110.10;85.57;;;7.90;99.90;;;;;;5013081;28;20029;-78
2021/01/20 09:15:52;;;;;;;97.43;80.85;;;7.90;99.90;;;;;;5010186;28;20022;-77
2021/01/20 09:18:19;;;;;;;103.65;82.25;;;8.00;99.90;;;;;;5008349;28;20022;-77
2021/01/20 09:20:46;;;;;;;107.43;84.47;;;8.10;99.90;;;;;;5010599;28;20065;-77
2021/01/20 09:23:14;;;;;;;97.13;82.72;;;8.20;99.90;;;;;;5012466;28;20415;-77
2021/01/20 09:25:41;;;;;;;109.53;83.68;;;8.30;99.90;;;;;;5011566;28;20137;-77
2021/01/20 09:28:07;;;;;;;103.70;84.70;;;8.40;99.90;;;;;;5011971;28;20038;-77
2021/01/20 09:30:34;;;;;;;112.35;86.32;;;8.30;99.90;;;;;;5011044;28;20192;-77
2021/01/20 09:33:01;;;;;;;106.35;87.30;;;8.20;99.90;;;;;;5012265;28;20025;-77
2021/01/20 09:35:30;;;;;;;109.05;86.65;;;8.10;99.90;;;;;;5010598;28;20045;-78
2021/01/20 09:37:56;;;;;;;110.05;86.18;;;8.10;99.90;;;;;;5014653;28;20033;-78
2021/01/20 09:40:24;;;;;;;109.07;88.22;;;8.20;99.90;;;;;;5010893;28;20049;-75
2021/01/20 09:42:52;;;;;;;106.22;87.53;;;8.10;99.90;;;;;;5014827;28;20438;-78
2021/01/20 09:45:27;;;;;;;107.20;92.10;;;8.20;99.90;;;;;;5014160;28;20053;-78
2021/01/20 09:48:04;;;;;;;113.10;91.43;;;8.20;99.90;;;;;;5013679;28;20028;-78
2021/01/20 09:50:33;;;;;;;110.28;90.43;;;8.10;99.90;;;;;;5009231;28;20045;-78
2021/01/20 09:53:00;;;;;;;111.07;85.80;;;8.20;99.90;;;;;;5009913;28;20026;-78
2021/01/20 09:55:29;;;;;;;106.22;92.47;;;8.20;99.90;;;;;;5003273;28;20101;-76
2021/01/20 09:57:56;;;;;;;110.18;90.97;;;8.20;99.90;;;;;;5013802;28;20083;-75
2021/01/20 10:00:22;;;;;;;109.53;91.80;;;8.20;99.90;;;;;;5007312;28;20117;-75
2021/01/20 10:02:48;;;;;;;115.13;95.55;;;8.20;99.90;;;;;;5015380;28;20033;-76
2021/01/20 10:05:14;;;;;;;117.13;91.07;;;8.10;99.90;;;;;;5011996;28;20033;-76
2021/01/20 10:07:40;;;;;;;112.97;96.15;;;8.30;99.90;;;;;;5017423;28;20053;-76
2021/01/20 10:10:11;;;;;;;108.63;93.68;;;8.40;99.90;;;;;;5015026;28;20030;-76
2021/01/20 10:12:38;;;;;;;120.70;98.50;;;8.50;99.90;;;;;;5012194;28;20030;-78
2021/01/20 10:15:06;;;;;;;119.57;97.38;;;8.40;99.90;;;;;;5017377;28;20452;-76
2021/01/20 10:17:32;;;;;;;111.72;95.93;;;8.30;99.90;;;;;;5011113;28;20117;-78
2021/01/20 10:19:58;;;;;;;116.03;97.45;;;8.30;99.90;;;;;;5016118;28;20022;-78
2021/01/20 10:22:24;;;;;;;146.07;102.47;;;8.30;99.90;;;;;;5026666;28;20033;-78
2021/01/20 10:24:50;;;;;;;117.60;98.65;;;8.30;99.90;;;;;;5012505;28;20026;-77
2021/01/20 10:27:16;;;;;;;119.38;101.38;;;8.30;99.90;;;;;;5014995;28;20073;-78
2021/01/20 10:29:42;;;;;;;116.88;102.18;;;8.40;99.90;;;;;;5014779;28;20108;-77
2021/01/20 10:32:09;;;;;;;123.30;103.38;;;8.40;99.90;;;;;;5016970;28;20061;-79
2021/01/20 10:34:35;;;;;;;117.47;103.22;;;8.50;99.90;;;;;;5019145;28;20036;-78
2021/01/20 10:37:01;;;;;;;122.47;106.45;;;8.60;99.90;;;;;;5017404;28;20022;-79
2021/01/20 10:39:27;;;;;;;113.85;101.30;;;8.60;99.90;;;;;;5020064;28;20048;-79
2021/01/20 10:41:53;;;;;;;117.45;101.75;;;8.60;99.90;;;;;;5021352;28;20037;-78
2021/01/20 10:44:19;;;;;;;125.35;104.93;;;8.60;99.90;;;;;;5017724;28;20029;-80
2021/01/20 10:46:46;;;;;;;121.35;106.55;;;8.70;99.90;;;;;;5023459;28;20030;-79
2021/01/20 10:49:12;;;;;;;124.43;105.22;;;8.70;99.90;;;;;;5022923;28;20049;-79
2021/01/20 10:51:38;;;;;;;119.82;100.88;;;8.70;99.90;;;;;;5020680;28;20025;-79
2021/01/20 10:54:04;;;;;;;130.15;112.00;;;8.60;99.90;;;;;;5016491;28;20114;-79
2021/01/20 10:56:31;;;;;;;125.75;110.40;;;8.60;99.90;;;;;;5018301;28;20033;-78
2021/01/20 10:58:57;;;;;;;126.72;107.40;;;8.60;99.90;;;;;;5012681;28;20026;-78
2021/01/20 11:01:23;;;;;;;127.32;111.30;;;8.60;99.90;;;;;;5017966;28;20141;-79
2021/01/20 11:03:49;;;;;;;137.65;114.53;;;8.60;99.90;;;;;;5018233;28;20402;-78
2021/01/20 11:06:18;;;;;;;133.25;109.15;;;8.60;99.90;;;;;;5014931;28;20080;-78
2021/01/20 11:08:44;;;;;;;139.18;115.90;;;8.60;99.90;;;;;;5018377;28;20033;-79
2021/01/20 11:11:11;;;;;;;133.65;109.95;;;8.60;99.90;;;;;;5018408;28;20010;-79
2021/01/20 11:13:38;;;;;;;129.25;108.05;;;8.60;99.90;;;;;;5012987;28;20504;-76
2021/01/20 11:16:04;;;;;;;136.77;111.22;;;8.70;99.90;;;;;;5013478;28;20045;-76
2021/01/20 11:18:34;;;;;;;140.45;112.70;;;8.60;99.90;;;;;;5013214;28;20033;-77
2021/01/20 11:21:00;;;;;;;135.20;112.72;;;8.70;99.90;;;;;;5016596;28;20125;-77
2021/01/20 11:23:27;;;;;;;155.77;119.55;;;8.80;99.90;;;;;;5021823;28;20548;-77
2021/01/20 11:25:54;;;;;;;141.93;115.63;;;8.80;99.90;;;;;;5017482;28;20373;-76
2021/01/20 11:28:21;;;;;;;151.05;121.97;;;8.80;99.90;;;;;;5013622;28;20509;-76
2021/01/20 11:30:48;;;;;;;142.57;117.43;;;8.70;99.90;;;;;;5011977;28;20026;-76
2021/01/20 11:33:14;;;;;;;146.48;120.68;;;8.70;99.90;;;;;;5016522;28;20014;-77
2021/01/20 11:35:40;;;;;;;135.07;112.75;;;8.70;99.90;;;;;;5015268;28;20099;-77
2021/01/20 11:38:06;;;;;;;139.25;116.22;;;8.70;99.90;;;;;;5016144;28;20033;-76
2021/01/20 11:40:34;;;;;;;148.63;122.75;;;8.70;99.90;;;;;;5015562;28;20030;-77
2021/01/20 11:43:01;;;;;;;161.25;125.07;;;8.70;99.90;;;;;;5016006;28;20033;-77
2021/01/20 11:45:35;;;;;;;172.60;129.20;;;8.60;99.90;;;;;;5013146;28;20045;-77
2021/01/20 11:48:05;;;;;;;146.13;120.57;;;8.70;99.90;;;;;;5005296;28;20074;-77
2021/01/20 11:50:32;;;;;;;146.77;120.13;;;8.70;99.90;;;;;;5005094;28;20014;-77
2021/01/20 11:52:58;;;;;;;145.93;120.38;;;8.70;99.90;;;;;;5006900;28;20040;-77
2021/01/20 11:55:24;;;;;;;144.40;119.53;;;8.90;99.90;;;;;;5008322;28;20022;-76
2021/01/20 11:57:51;;;;;;;137.77;118.43;;;8.80;99.90;;;;;;5006757;28;20045;-77
2021/01/20 12:00:19;;;;;;;140.13;119.70;;;8.80;99.90;;;;;;5009316;28;20026;-77
2021/01/20 12:02:45;;;;;;;131.07;114.53;;;8.90;99.90;;;;;;4999182;28;20027;-77
2021/01/20 12:05:13;;;;;;;130.88;112.18;;;8.90;99.90;;;;;;5015455;28;20065;-79
2021/01/20 12:07:40;;;;;;;139.02;118.38;;;9.10;99.90;;;;;;5018081;28;20409;-78
2021/01/20 12:10:08;;;;;;;129.13;112.50;;;9.10;99.90;;;;;;5017081;28;20018;-78
2021/01/20 12:12:34;;;;;;;132.20;115.85;;;9.00;99.90;;;;;;5015940;28;20026;-79
2021/01/20 12:15:00;;;;;;;126.40;111.65;;;9.00;99.90;;;;;;5016944;28;20022;-79
2021/01/20 12:17:26;;;;;;;135.45;114.40;;;9.00;99.90;;;;;;5016131;28;20025;-79
2021/01/20 12:19:52;;;;;;;120.93;106.53;;;9.10;99.90;;;;;;5019302;28;20024;-79
2021/01/20 12:22:18;;;;;;;125.72;112.00;;;9.10;99.90;;;;;;5019546;28;20057;-78
2021/01/20 12:24:44;;;;;;;133.98;112.10;;;9.10;99.90;;;;;;5028590;28;20021;-79
2021/01/20 12:27:10;;;;;;;126.60;109.70;;;9.20;99.90;;;;;;5029950;28;20084;-79
2021/01/20 12:29:36;;;;;;;134.98;113.45;;;9.20;99.90;;;;;;5018774;28;20033;-79
2021/01/20 12:32:03;;;;;;;128.10;109.47;;;9.30;99.90;;;;;;5017868;28;20040;-78
2021/01/20 12:34:29;;;;;;;126.05;109.10;;;9.20;99.90;;;;;;5016001;28;20034;-78
2021/01/20 12:36:55;;;;;;;133.55;110.55;;;9.20;99.90;;;;;;5018189;28;20029;-79
2021/01/20 12:39:20;;;;;;;138.27;111.10;;;9.20;99.90;;;;;;5017903;28;20050;-79